Time;durP1;ratioP1;P1;durP2;ratioP2;P2;SDS_P1;SDS_P2;PMS_P1;PMS_P2;Temp;Humidity;BMP_temperature;BMP_pressure;BME280_temperature;BME280_humidity;BME280_pressure;Samples;Min_cycle;Max_cycle;Signal;HPM_P1;HPM_P2
2023/08/11 00:04:20;;;;;;;;;8.50;8.50;;;;;;;;2;266354737;266354737;-74
2023/08/11 00:11:57;;;;;;;;;6.00;6.00;;;;;;;;2;224567323;224567323;-75
2023/08/11 00:20:28;;;;;;;;;5.50;5.50;;;;;;;;2;264861276;264861276;-74
2023/08/11 00:27:56;;;;;;;;;7.00;7.00;;;;;;;;2;219402318;219402318;-74
2023/08/11 00:36:24;;;;;;;;;3.50;3.50;;;;;;;;2;262312758;262312758;-74
2023/08/11 00:43:49;;;;;;;;;7.50;3.50;;;;;;;;2;218244175;218244175;-74
2023/08/11 00:52:11;;;;;;;;;5.50;5.50;;;;;;;;2;258946117;258946117;-75
2023/08/11 00:59:36;;;;;;;;;5.50;5.50;;;;;;;;2;216976564;216976564;-74
2023/08/11 01:05:09;;;;;;;;;7.00;7.00;;;;;;;;2;251908560;251908560;-75
2023/08/11 01:07:59;;;;;;;;;6.00;6.00;;;;;;;;466123;27;75770988;-74
2023/08/11 01:11:17;;;;;;;;;6.50;6.50;;;;;;;;1835826;28;44860862;-73
2023/08/11 01:21:40;;;;;;;;;8.25;8.25;;;;;;;;782944;28;242039998;-74
2023/08/11 01:29:54;;;;;;;;;;;;;;;;;;2;243071571;243071571;-74
2023/08/11 01:37:32;;;;;;;;;4.00;4.00;;;;;;;;2;241346460;241346460;-74
2023/08/11 01:45:16;;;;;;;;;12.00;12.00;;;;;;;;2;218287416;218287416;-74
2023/08/11 01:47:43;;;;;;;;;9.50;9.50;;;;;;;;118367;28;141597681;-74
2023/08/11 01:52:34;;;;;;;;;;;;;;;;;;1235703;27;167251041;-75
2023/08/11 01:57:18;;;;;;;;;6.00;6.00;;;;;;;;171291;28;210597277;-74
2023/08/11 02:06:10;;;;;;;;;11.00;11.00;;;;;;;;2160207;27;215704857;-75
2023/08/11 02:13:34;;;;;;;;;6.50;6.50;;;;;;;;2;233673211;233673211;-74
2023/08/11 02:21:28;;;;;;;;;16.00;13.50;;;;;;;;2;224105081;224105081;-74
2023/08/11 02:28:33;;;;;;;;;7.50;7.50;;;;;;;;2;227028452;227028452;-74
2023/08/11 02:36:04;;;;;;;;;5.50;5.50;;;;;;;;2;209607360;209607360;-75
2023/08/11 02:43:10;;;;;;;;;5.50;5.50;;;;;;;;2;223226278;223226278;-73
2023/08/11 02:50:40;;;;;;;;;3.50;3.50;;;;;;;;2;210580375;210580375;-73
2023/08/11 02:57:44;;;;;;;;;6.50;6.50;;;;;;;;2;223551648;223551648;-73
2023/08/11 03:05:15;;;;;;;;;10.50;10.50;;;;;;;;2;206105926;206105926;-73
2023/08/11 03:12:32;;;;;;;;;9.50;9.50;;;;;;;;2;231241442;231241442;-73
2023/08/11 03:20:15;;;;;;;;;4.50;4.50;;;;;;;;2;212179889;212179889;-73
2023/08/11 03:27:35;;;;;;;;;4.50;4.50;;;;;;;;2;230120933;230120933;-73
2023/08/11 03:35:17;;;;;;;;;6.00;6.00;;;;;;;;2;213435594;213435594;-73
2023/08/11 03:45:40;;;;;;;;;6.00;6.00;;;;;;;;2;231330310;231330310;-73
2023/08/11 03:53:17;;;;;;;;;4.50;4.50;;;;;;;;2;213112895;213112895;-73
2023/08/11 04:00:33;;;;;;;;;4.50;4.50;;;;;;;;2;227592128;227592128;-73
2023/08/11 04:08:15;;;;;;;;;8.00;8.00;;;;;;;;2;214234971;214234971;-73
2023/08/11 04:15:32;;;;;;;;;2.50;2.50;;;;;;;;2;230776279;230776279;-73
2023/08/11 04:23:21;;;;;;;;;3.50;3.50;;;;;;;;2;220398662;220398662;-73
2023/08/11 04:30:37;;;;;;;;;4.00;4.00;;;;;;;;2;227754876;227754876;-73
2023/08/11 04:38:21;;;;;;;;;4.00;4.00;;;;;;;;2;213945593;213945593;-75
2023/08/11 04:45:42;;;;;;;;;15.00;6.00;;;;;;;;2;232935084;232935084;-72
2023/08/11 04:53:27;;;;;;;;;10.50;10.50;;;;;;;;2;214254603;214254603;-73
2023/08/11 05:00:48;;;;;;;;;6.00;6.00;;;;;;;;2;232292371;232292371;-73
2023/08/11 05:08:31;;;;;;;;;8.00;8.00;;;;;;;;2;213128371;213128371;-73
2023/08/11 05:15:51;;;;;;;;;9.00;9.00;;;;;;;;2;233420025;233420025;-73
2023/08/11 05:23:34;;;;;;;;;6.50;6.50;;;;;;;;2;216102429;216102429;-72
2023/08/11 05:30:50;;;;;;;;;9.00;9.00;;;;;;;;2;227993509;227993509;-73
2023/08/11 05:38:30;;;;;;;;;6.50;6.50;;;;;;;;2;213768913;213768913;-72
2023/08/11 05:45:46;;;;;;;;;7.00;7.00;;;;;;;;2;229627471;229627471;-73
2023/08/11 05:53:28;;;;;;;;;5.50;5.50;;;;;;;;2;213310646;213310646;-73
2023/08/11 06:00:43;;;;;;;;;8.00;8.00;;;;;;;;2;231307876;231307876;-73
2023/08/11 06:08:21;;;;;;;;;14.50;14.50;;;;;;;;2;211363490;211363490;-72
2023/08/11 06:15:43;;;;;;;;;11.50;3.00;;;;;;;;2;233391005;233391005;-72
2023/08/11 06:23:24;;;;;;;;;5.00;5.00;;;;;;;;2;215482611;215482611;-73
2023/08/11 06:30:45;;;;;;;;;4.00;4.00;;;;;;;;2;233049381;233049381;-73
2023/08/11 06:38:33;;;;;;;;;3.00;3.00;;;;;;;;2;217908468;217908468;-73
2023/08/11 06:45:48;;;;;;;;;2.00;2.00;;;;;;;;2;228840763;228840763;-73
2023/08/11 06:53:32;;;;;;;;;2.00;2.00;;;;;;;;2;217681108;217681108;-73
2023/08/11 07:00:52;;;;;;;;;4.00;4.00;;;;;;;;2;233532086;233532086;-73
2023/08/11 07:08:33;;;;;;;;;12.00;3.00;;;;;;;;2;214242130;214242130;-73
2023/08/11 07:15:47;;;;;;;;;3.50;3.50;;;;;;;;2;227986467;227986467;-74
2023/08/11 07:23:30;;;;;;;;;11.00;11.00;;;;;;;;2;212559058;212559058;-73
2023/08/11 07:30:45;;;;;;;;;4.00;4.00;;;;;;;;2;228989387;228989387;-74
2023/08/11 07:38:23;;;;;;;;;3.50;3.50;;;;;;;;2;213489627;213489627;-73
2023/08/11 07:45:40;;;;;;;;;31.00;6.50;;;;;;;;2;228297618;228297618;-74
2023/08/11 07:53:22;;;;;;;;;1.00;1.00;;;;;;;;2;211274463;211274463;-73
2023/08/11 08:00:36;;;;;;;;;9.50;9.50;;;;;;;;2;227172232;227172232;-73
2023/08/11 08:08:16;;;;;;;;;13.50;4.50;;;;;;;;2;212206609;212206609;-73
2023/08/11 08:15:30;;;;;;;;;5.00;5.00;;;;;;;;2;229492749;229492749;-73
2023/08/11 08:23:17;;;;;;;;;5.00;5.00;;;;;;;;2;219698124;219698124;-73
2023/08/11 08:30:34;;;;;;;;;6.50;6.50;;;;;;;;2;230273472;230273472;-73
2023/08/11 08:37:54;;;;;;;;;7.50;4.50;;;;;;;;2;206978755;206978755;-72
2023/08/11 08:44:51;;;;;;;;;8.50;8.50;;;;;;;;2;218949094;218949094;-74
2023/08/11 08:52:05;;;;;;;;;5.50;5.50;;;;;;;;2;201879170;201879170;-73
2023/08/11 08:58:41;;;;;;;;;4.00;4.00;;;;;;;;2;206122689;206122689;-73
2023/08/11 09:05:45;;;;;;;;;2.00;2.00;;;;;;;;2;194793271;194793271;-73
2023/08/11 09:12:34;;;;;;;;;9.50;6.50;;;;;;;;2;212505197;212505197;-73
2023/08/11 09:19:42;;;;;;;;;11.00;11.00;;;;;;;;2;197011484;197011484;-73
2023/08/11 09:26:33;;;;;;;;;8.00;8.00;;;;;;;;2;215358825;215358825;-75
2023/08/11 09:33:34;;;;;;;;;3.50;3.50;;;;;;;;2;195376985;195376985;-75
2023/08/11 09:40:26;;;;;;;;;2.00;2.00;;;;;;;;2;222142511;222142511;-76
2023/08/11 09:47:43;;;;;;;;;9.50;6.50;;;;;;;;2;203160014;203160014;-76
2023/08/11 09:54:41;;;;;;;;;5.00;5.00;;;;;;;;2;214677836;214677836;-75
2023/08/11 10:02:22;;;;;;;;;3.00;3.00;;;;;;;;2;211554742;211554742;-76
2023/08/11 10:09:41;;;;;;;;;4.00;4.00;;;;;;;;2;232617945;232617945;-75
2023/08/11 10:17:25;;;;;;;;;4.50;4.50;;;;;;;;2;217978195;217978195;-75
2023/08/11 10:24:46;;;;;;;;;2.00;2.00;;;;;;;;2;232436322;232436322;-75
2023/08/11 10:32:32;;;;;;;;;5.00;5.00;;;;;;;;2;218722559;218722559;-76
2023/08/11 10:40:01;;;;;;;;;2.50;2.50;;;;;;;;2;228626341;228626341;-74
2023/08/11 10:47:51;;;;;;;;;11.50;3.50;;;;;;;;2;216152941;216152941;-75
2023/08/11 10:55:05;;;;;;;;;4.50;4.50;;;;;;;;2;230517046;230517046;-74
2023/08/11 11:02:44;;;;;;;;;3.00;3.00;;;;;;;;2;214203430;214203430;-75
2023/08/11 11:09:50;;;;;;;;;5.50;5.50;;;;;;;;2;226167421;226167421;-76
2023/08/11 11:16:01;;;;;;;;;1.00;1.00;;;;;;;;2;207792646;207792646;-75
2023/08/11 11:25:12;;;;;;;;;4.50;4.50;;;;;;;;3140095;27;177659416;-75
2023/08/11 11:33:12;;;;;;;;;;;;;;;;;;2;279080194;279080194;-75
2023/08/11 11:35:37;;;;;;;;;3.50;3.50;;;;;;;;1595564;27;52065714;-75
2023/08/11 11:43:24;;;;;;;;;;;;;;;;;;675721;27;234067961;-75
2023/08/11 11:50:55;;;;;;;;;3.00;3.00;;;;;;;;2;236179433;236179433;-76
2023/08/11 11:57:33;;;;;;;;;2.50;2.50;;;;;;;;2;194504392;194504392;-75
2023/08/11 12:05:13;;;;;;;;;2.00;2.00;;;;;;;;2;238931668;238931668;-75
2023/08/11 12:12:02;;;;;;;;;1.00;1.00;;;;;;;;2;198672016;198672016;-75
2023/08/11 12:19:37;;;;;;;;;5.50;5.50;;;;;;;;2;233997902;233997902;-75
2023/08/11 12:26:25;;;;;;;;;6.50;6.50;;;;;;;;2;200968480;200968480;-75
2023/08/11 12:33:32;;;;;;;;;2.00;2.00;;;;;;;;2;233834321;233834321;-76
2023/08/11 12:39:55;;;;;;;;;6.00;6.00;;;;;;;;2;188097966;188097966;-75
2023/08/11 12:47:28;;;;;;;;;5.50;5.50;;;;;;;;2;230121245;230121245;-76
2023/08/11 12:54:10;;;;;;;;;4.00;4.00;;;;;;;;2;200196960;200196960;-74
2023/08/11 12:59:37;;;;;;;;;2.00;2.00;;;;;;;;2;230285282;230285282;-75
2023/08/11 13:02:02;;;;;;;;;3.33;3.33;;;;;;;;3911507;27;3504936;-74
2023/08/11 13:09:22;;;;;;;;;3.00;3.00;;;;;;;;2257610;27;65195801;-76
2023/08/11 13:15:30;;;;;;;;;;;;;;;;;;2;230261336;230261336;-76
2023/08/11 13:20:59;;;;;;;;;4.00;4.00;;;;;;;;2;188847689;188847689;-75
2023/08/11 13:26:53;;;;;;;;;3.50;3.50;;;;;;;;3;104848112;108120653;-76
2023/08/11 13:32:16;;;;;;;;;4.00;4.00;;;;;;;;3;96898069;117644494;-74
2023/08/11 13:40:37;;;;;;;;;2.50;2.50;;;;;;;;3;129029954;141514640;-76
2023/08/11 13:46:42;;;;;;;;;;;;;;;;;;2;240444113;240444113;-76
2023/08/11 13:52:03;;;;;;;;;2.00;2.00;;;;;;;;3;99658909;116635309;-76
2023/08/11 13:57:59;;;;;;;;;2.00;2.00;;;;;;;;3;120549179;127320048;-77
2023/08/11 14:03:45;;;;;;;;;5.00;5.00;;;;;;;;3;106256414;122876675;-76
2023/08/11 14:08:45;;;;;;;;;5.00;5.00;;;;;;;;3;92316584;96450281;-76
2023/08/11 14:13:08;;;;;;;;;3.00;3.00;;;;;;;;3;85798222;105624136;-76
2023/08/11 14:17:01;;;;;;;;;2.50;2.50;;;;;;;;3;79597140;81435902;-76
2023/08/11 14:21:14;;;;;;;;;2.50;2.50;;;;;;;;3;79214131;92689644;-75
2023/08/11 14:27:15;;;;;;;;;1.00;1.00;;;;;;;;4;68701661;91672935;-74
2023/08/11 14:32:06;;;;;;;;;;;;;;;;;;3;114442619;118484661;-75
2023/08/11 14:34:35;;;;;;;;;5.33;5.33;;;;;;;;218621;27;55338712;-75
2023/08/11 14:37:00;;;;;;;;;3.00;3.00;;;;;;;;4517534;27;1620105;-75
2023/08/11 14:39:25;;;;;;;;;2.25;2.25;;;;;;;;5075804;27;229293;-74
2023/08/11 14:46:07;;;;;;;;;;;;;;;;;;1451359;27;241139452;-74
2023/08/11 14:51:30;;;;;;;;;3.50;3.50;;;;;;;;3;104025037;112984838;-72
2023/08/11 14:57:07;;;;;;;;;4.50;4.50;;;;;;;;3;111470069;115417832;-73
2023/08/11 15:02:58;;;;;;;;;2.00;2.00;;;;;;;;3;114268232;124094325;-73
2023/08/11 15:09:05;;;;;;;;;2.00;2.00;;;;;;;;4;54940694;86891793;-72
2023/08/11 15:13:35;;;;;;;;;;;;;;;;;;2;190136467;190136467;-72
2023/08/11 15:17:50;;;;;;;;;2.50;2.50;;;;;;;;3;81979208;85303281;-71
2023/08/11 15:22:07;;;;;;;;;2.00;2.00;;;;;;;;3;80700848;93208172;-72
2023/08/11 15:25:37;;;;;;;;;3.00;3.00;;;;;;;;4;56031128;73699221;-70
2023/08/11 15:28:05;;;;;;;;;3.60;2.20;;;;;;;;2690452;27;13497921;-72
2023/08/11 15:30:30;;;;;;;;;4.00;3.33;;;;;;;;5004328;27;667061;-71
2023/08/11 15:32:55;;;;;;;;;3.00;2.00;;;;;;;;5123875;27;64131;-71
2023/08/11 15:35:22;;;;;;;;;1.00;1.00;;;;;;;;5135324;27;51790;-73
2023/08/11 15:37:48;;;;;;;;;1.25;1.25;;;;;;;;5133712;27;51834;-72
2023/08/11 15:40:15;;;;;;;;;4.00;2.75;;;;;;;;5131589;27;53928;-71
2023/08/11 15:42:40;;;;;;;;;2.33;2.33;;;;;;;;5133954;27;38962;-71
2023/08/11 15:45:06;;;;;;;;;2.00;2.00;;;;;;;;5135070;27;28367;-70
2023/08/11 15:47:31;;;;;;;;;2.00;1.00;;;;;;;;4077869;27;29605492;-73
2023/08/11 15:49:56;;;;;;;;;2.67;1.00;;;;;;;;5112841;27;39432;-73
2023/08/11 15:52:22;;;;;;;;;1.33;1.33;;;;;;;;5113895;27;28336;-73
2023/08/11 15:54:48;;;;;;;;;3.00;3.00;;;;;;;;5113064;27;28356;-72
2023/08/11 15:57:13;;;;;;;;;2.67;2.00;;;;;;;;5112750;27;28328;-72
2023/08/11 15:59:38;;;;;;;;;1.33;1.33;;;;;;;;5112396;27;28325;-72
2023/08/11 16:09:18;;;;;;;;;2.00;2.00;;;;;;;;4680113;27;185167921;-72
2023/08/11 16:16:16;;;;;;;;;;;;;;;;;;2;234064610;234064610;-71
2023/08/11 16:23:09;;;;;;;;;1.00;1.00;;;;;;;;2;214057479;214057479;-72
2023/08/11 16:29:11;;;;;;;;;2.00;2.00;;;;;;;;2;179099098;179099098;-73
2023/08/11 16:35:59;;;;;;;;;0.50;0.50;;;;;;;;2;209168433;209168433;-72
2023/08/11 16:41:49;;;;;;;;;2.50;2.50;;;;;;;;323304;27;188784292;-71
2023/08/11 16:48:26;;;;;;;;;1.50;1.50;;;;;;;;352110;27;206176853;-72
2023/08/11 16:55:14;;;;;;;;;0.50;0.50;;;;;;;;2;192299011;192299011;-71
2023/08/11 17:01:36;;;;;;;;;1.00;1.00;;;;;;;;2;203594702;203594702;-71
2023/08/11 17:08:24;;;;;;;;;0.50;0.50;;;;;;;;2;188425294;188425294;-73
2023/08/11 17:14:46;;;;;;;;;9.50;1.50;;;;;;;;2;201751589;201751589;-72
2023/08/11 17:21:10;;;;;;;;;1.50;1.50;;;;;;;;2;181837630;181837630;-72
2023/08/11 17:25:35;;;;;;;;;1.00;1.00;;;;;;;;2;184079183;184079183;-73
2023/08/11 17:32:43;;;;;;;;;3.00;3.00;;;;;;;;345225;27;151934668;-71
2023/08/11 17:35:49;;;;;;;;;2.50;2.50;;;;;;;;2;185947007;185947007;-72
2023/08/11 17:42:06;;;;;;;;;0.50;0.50;;;;;;;;237413;27;168496136;-72
2023/08/11 17:44:32;;;;;;;;;0.00;0.00;;;;;;;;5092128;27;572957;-72
2023/08/11 17:46:57;;;;;;;;;2.00;2.00;;;;;;;;5114634;27;28781;-72
2023/08/11 17:49:22;;;;;;;;;2.00;2.00;;;;;;;;5113458;27;44589;-72
2023/08/11 17:51:47;;;;;;;;;1.33;1.33;;;;;;;;5114556;27;28495;-72
2023/08/11 17:54:12;;;;;;;;;2.00;2.00;;;;;;;;5114539;27;28676;-72
2023/08/11 17:56:38;;;;;;;;;3.25;2.25;;;;;;;;5114558;27;28460;-72
2023/08/11 17:59:03;;;;;;;;;3.00;2.00;;;;;;;;5113633;27;28397;-72
2023/08/11 18:01:29;;;;;;;;;1.75;1.75;;;;;;;;5113177;27;29498;-72
2023/08/11 18:03:54;;;;;;;;;2.00;2.00;;;;;;;;5113064;27;28435;-73
2023/08/11 18:06:20;;;;;;;;;3.50;3.50;;;;;;;;5112099;27;28476;-73
2023/08/11 18:08:45;;;;;;;;;2.33;2.00;;;;;;;;5113355;27;28407;-73
2023/08/11 18:11:10;;;;;;;;;4.33;2.00;;;;;;;;5112879;27;28395;-73
2023/08/11 18:13:35;;;;;;;;;3.00;3.00;;;;;;;;5111698;27;28349;-74
2023/08/11 18:16:01;;;;;;;;;2.67;2.67;;;;;;;;5113073;27;28326;-74
2023/08/11 18:18:26;;;;;;;;;2.67;2.00;;;;;;;;5113298;27;28313;-74
2023/08/11 18:20:52;;;;;;;;;3.00;2.00;;;;;;;;5113007;27;28443;-74
2023/08/11 18:23:17;;;;;;;;;2.67;2.67;;;;;;;;5111646;27;28468;-73
2023/08/11 18:25:42;;;;;;;;;5.00;3.00;;;;;;;;5111692;27;28286;-73
2023/08/11 18:28:07;;;;;;;;;6.00;5.00;;;;;;;;3908888;27;27934466;-73
2023/08/11 18:30:32;;;;;;;;;3.00;2.00;;;;;;;;5112771;27;28292;-72
2023/08/11 18:32:58;;;;;;;;;2.75;2.00;;;;;;;;5113165;27;28307;-74
2023/08/11 18:35:23;;;;;;;;;2.00;2.00;;;;;;;;5112876;27;28327;-74
2023/08/11 18:37:48;;;;;;;;;3.00;2.33;;;;;;;;5113305;27;28303;-77
2023/08/11 18:40:13;;;;;;;;;2.00;2.00;;;;;;;;5112543;27;28371;-76
2023/08/11 18:42:39;;;;;;;;;3.67;2.33;;;;;;;;5112414;27;28412;-76
2023/08/11 18:45:04;;;;;;;;;2.00;2.00;;;;;;;;5112507;27;28440;-75
2023/08/11 18:47:29;;;;;;;;;3.33;2.67;;;;;;;;5112794;27;28345;-76
2023/08/11 18:49:54;;;;;;;;;2.00;2.00;;;;;;;;5112867;27;28669;-75
2023/08/11 18:52:20;;;;;;;;;3.00;3.00;;;;;;;;5111304;27;28453;-76
2023/08/11 18:54:45;;;;;;;;;3.67;1.00;;;;;;;;5112564;27;28300;-75
2023/08/11 18:57:12;;;;;;;;;3.00;2.25;;;;;;;;5061749;27;1386028;-76
2023/08/11 18:59:38;;;;;;;;;4.00;3.00;;;;;;;;5113410;27;29223;-76
2023/08/11 19:02:04;;;;;;;;;1.67;1.33;;;;;;;;5113327;27;28520;-76
2023/08/11 19:04:29;;;;;;;;;5.00;2.75;;;;;;;;5113894;27;28607;-75
2023/08/11 19:06:54;;;;;;;;;2.67;1.33;;;;;;;;5113213;27;28526;-75
2023/08/11 19:09:19;;;;;;;;;1.00;1.00;;;;;;;;5113363;27;28466;-76
2023/08/11 19:11:45;;;;;;;;;3.00;3.00;;;;;;;;4463030;27;18450445;-75
2023/08/11 19:14:10;;;;;;;;;1.00;1.00;;;;;;;;1284803;27;35582393;-76
2023/08/11 19:23:06;;;;;;;;;;;;;;;;;;586445;27;279082189;-76
2023/08/11 19:30:21;;;;;;;;;2.50;1.00;;;;;;;;2;213482827;213482827;-77
2023/08/11 19:38:28;;;;;;;;;0.50;0.50;;;;;;;;2;250356688;250356688;-77
2023/08/11 19:45:30;;;;;;;;;5.50;5.50;;;;;;;;2;209935027;209935027;-76
2023/08/11 19:53:06;;;;;;;;;2.50;2.50;;;;;;;;2;239675169;239675169;-77
2023/08/11 20:00:08;;;;;;;;;3.50;1.00;;;;;;;;2;206293054;206293054;-76
2023/08/11 20:08:24;;;;;;;;;1.00;1.00;;;;;;;;2;256991343;256991343;-76
2023/08/11 20:15:30;;;;;;;;;3.00;3.00;;;;;;;;2;209742273;209742273;-77
2023/08/11 20:21:38;;;;;;;;;1.00;1.00;;;;;;;;2;243961121;243961121;-76
2023/08/11 20:26:46;;;;;;;;;3.00;3.00;;;;;;;;174051;27;159970464;-79
2023/08/11 20:30:20;;;;;;;;;1.50;1.50;;;;;;;;2;213029849;213029849;-76
2023/08/11 20:36:07;;;;;;;;;4.50;4.50;;;;;;;;165751;27;210200129;-73
2023/08/11 20:43:13;;;;;;;;;2.00;2.00;;;;;;;;114117;27;204802682;-76
2023/08/11 20:51:23;;;;;;;;;5.50;5.50;;;;;;;;2;252707028;252707028;-75
2023/08/11 20:58:34;;;;;;;;;1.50;1.50;;;;;;;;2;210546203;210546203;-75
2023/08/11 21:06:50;;;;;;;;;1.00;1.00;;;;;;;;2;255111536;255111536;-75
2023/08/11 21:14:07;;;;;;;;;1.00;1.00;;;;;;;;2;212142712;212142712;-74
2023/08/11 21:22:22;;;;;;;;;0.50;0.50;;;;;;;;2;255018187;255018187;-75
2023/08/11 21:29:35;;;;;;;;;1.50;1.50;;;;;;;;2;212370759;212370759;-77
2023/08/11 21:37:36;;;;;;;;;0.00;0.00;;;;;;;;2;247922115;247922115;-74
2023/08/11 21:44:33;;;;;;;;;0.50;0.50;;;;;;;;2;207779311;207779311;-73
2023/08/11 21:52:23;;;;;;;;;2.50;2.50;;;;;;;;2;241925915;241925915;-73
2023/08/11 21:56:56;;;;;;;;;1.00;1.00;;;;;;;;2;203724672;203724672;-74
2023/08/11 22:00:03;;;;;;;;;1.00;1.00;;;;;;;;2;184332557;184332557;-74
2023/08/11 22:02:28;;;;;;;;;0.00;0.00;;;;;;;;1463594;27;43698951;-74
2023/08/11 22:11:51;;;;;;;;;;;;;;;;;;1470237;27;261073704;-74
2023/08/11 22:20:07;;;;;;;;;1.50;1.50;;;;;;;;2;230354669;230354669;-74
2023/08/11 22:27:54;;;;;;;;;3.00;3.00;;;;;;;;2;246819643;246819643;-75
2023/08/11 22:36:09;;;;;;;;;0.00;0.00;;;;;;;;2;230364785;230364785;-75
2023/08/11 22:43:57;;;;;;;;;1.50;1.50;;;;;;;;2;246856284;246856284;-75
2023/08/11 22:52:09;;;;;;;;;2.00;2.00;;;;;;;;2;229848155;229848155;-73
2023/08/11 22:59:54;;;;;;;;;1.00;1.00;;;;;;;;2;243162387;243162387;-74
2023/08/11 23:08:00;;;;;;;;;0.50;0.50;;;;;;;;2;227040077;227040077;-74
2023/08/11 23:11:40;;;;;;;;;9.00;0.50;;;;;;;;2;219715759;219715759;-74
2023/08/11 23:18:41;;;;;;;;;1.00;1.00;;;;;;;;331420;27;177325777;-74
2023/08/11 23:27:30;;;;;;;;;3.00;3.00;;;;;;;;382186;27;114884322;-74
2023/08/11 23:35:07;;;;;;;;;;;;;;;;;;2;261078046;261078046;-74
2023/08/11 23:42:34;;;;;;;;;0.00;0.00;;;;;;;;87330;27;227661676;-77
2023/08/11 23:51:33;;;;;;;;;0.00;0.00;;;;;;;;175488;28;187635286;-77
